createdAt,value
2022-09-18T00:00:07.000Z,99.99
2022-09-18T00:01:07.000Z,99.99
2022-09-18T00:02:07.000Z,99.99
2022-09-18T00:03:07.000Z,99.99
2022-09-18T00:04:07.000Z,99.99
2022-09-18T00:05:07.000Z,99.99
2022-09-18T00:06:07.000Z,99.99
2022-09-18T00:07:07.000Z,99.99
2022-09-18T00:08:07.000Z,99.99
2022-09-18T00:09:07.000Z,99.99
2022-09-18T00:10:07.000Z,99.99
2022-09-18T00:11:07.000Z,99.99
2022-09-18T00:12:07.000Z,99.99
2022-09-18T00:13:07.000Z,99.99
2022-09-18T00:14:07.000Z,99.99
2022-09-18T00:15:07.000Z,99.99
2022-09-18T00:16:07.000Z,99.99
2022-09-18T00:17:07.000Z,99.99
2022-09-18T00:18:07.000Z,99.99
2022-09-18T00:19:07.000Z,99.99
2022-09-18T00:20:07.000Z,99.99
2022-09-18T00:21:07.000Z,99.99
2022-09-18T00:22:07.000Z,99.99
2022-09-18T00:23:07.000Z,99.99
2022-09-18T00:24:07.000Z,99.99
2022-09-18T00:25:07.000Z,99.99
2022-09-18T00:26:07.000Z,99.99
2022-09-18T00:27:07.000Z,99.99
2022-09-18T00:28:07.000Z,99.99
2022-09-18T00:29:07.000Z,99.99
2022-09-18T00:30:07.000Z,99.99
2022-09-18T00:31:07.000Z,99.99
2022-09-18T00:32:07.000Z,99.99
2022-09-18T00:33:07.000Z,99.99
2022-09-18T00:34:07.000Z,99.99
2022-09-18T00:35:07.000Z,99.99
2022-09-18T00:36:07.000Z,99.99
2022-09-18T00:37:07.000Z,99.99
2022-09-18T00:38:07.000Z,99.99
2022-09-18T00:39:07.000Z,99.99
2022-09-18T00:40:07.000Z,99.99
2022-09-18T00:41:07.000Z,99.99
2022-09-18T00:42:07.000Z,99.99
2022-09-18T00:43:07.000Z,99.99
2022-09-18T00:44:07.000Z,99.99
2022-09-18T00:45:07.000Z,99.99
2022-09-18T00:46:07.000Z,99.99
2022-09-18T00:47:07.000Z,99.99
2022-09-18T00:48:07.000Z,99.99
2022-09-18T00:49:07.000Z,99.99
2022-09-18T00:50:07.000Z,99.99
2022-09-18T00:51:07.000Z,99.99
2022-09-18T00:52:07.000Z,99.99
2022-09-18T00:53:07.000Z,99.99
2022-09-18T00:54:07.000Z,99.99
2022-09-18T00:55:06.000Z,99.99
2022-09-18T00:56:06.000Z,99.99
2022-09-18T00:57:06.000Z,99.99
2022-09-18T00:58:06.000Z,99.99
2022-09-18T00:59:06.000Z,99.99
2022-09-18T01:00:06.000Z,99.99
2022-09-18T01:01:06.000Z,99.99
2022-09-18T01:02:06.000Z,99.99
2022-09-18T01:03:06.000Z,99.99
2022-09-18T01:04:06.000Z,99.99
2022-09-18T01:05:06.000Z,99.99
2022-09-18T01:06:06.000Z,99.99
2022-09-18T01:07:06.000Z,99.99
2022-09-18T01:08:06.000Z,99.99
2022-09-18T01:09:06.000Z,99.99
2022-09-18T01:10:06.000Z,99.99
2022-09-18T01:11:06.000Z,99.99
2022-09-18T01:12:06.000Z,99.99
2022-09-18T01:13:06.000Z,99.85
2022-09-18T01:14:06.000Z,99.65
2022-09-18T01:15:06.000Z,99.44
2022-09-18T01:16:06.000Z,99.34
2022-09-18T01:17:06.000Z,99.34
2022-09-18T01:18:06.000Z,99.34
2022-09-18T01:19:06.000Z,99.34
2022-09-18T01:20:06.000Z,99.54
2022-09-18T01:21:06.000Z,99.34
2022-09-18T01:22:06.000Z,99.75
2022-09-18T01:23:06.000Z,99.44
2022-09-18T01:24:06.000Z,98.93
2022-09-18T01:25:06.000Z,98.83
2022-09-18T01:26:06.000Z,98.93
2022-09-18T01:27:06.000Z,98.62
2022-09-18T01:28:06.000Z,98.52
2022-09-18T01:29:06.000Z,98.83
2022-09-18T01:30:06.000Z,98.83
2022-09-18T01:31:06.000Z,98.83
2022-09-18T01:32:06.000Z,99.03
2022-09-18T01:33:06.000Z,98.52
2022-09-18T01:34:06.000Z,98.62
2022-09-18T01:35:06.000Z,98.52
2022-09-18T01:36:06.000Z,98.83
2022-09-18T01:37:06.000Z,99.03
2022-09-18T01:38:06.000Z,99.13
2022-09-18T01:39:06.000Z,99.03
2022-09-18T01:40:06.000Z,99.24
2022-09-18T01:41:06.000Z,99.65
2022-09-18T01:42:06.000Z,99.54
2022-09-18T01:43:06.000Z,99.34
2022-09-18T01:44:06.000Z,99.44
2022-09-18T01:45:06.000Z,99.24
2022-09-18T01:46:06.000Z,99.54
2022-09-18T01:47:06.000Z,99.75
2022-09-18T01:48:06.000Z,99.65
2022-09-18T01:49:06.000Z,99.34
2022-09-18T01:50:06.000Z,99.24
2022-09-18T01:51:06.000Z,99.54
2022-09-18T01:52:06.000Z,99.34
2022-09-18T01:53:06.000Z,99.54
2022-09-18T01:54:06.000Z,99.65
2022-09-18T01:55:06.000Z,99.75
2022-09-18T01:56:06.000Z,99.75
2022-09-18T01:57:06.000Z,99.65
2022-09-18T01:58:06.000Z,99.54
2022-09-18T01:59:06.000Z,99.54
2022-09-18T02:00:06.000Z,99.24
2022-09-18T02:01:06.000Z,99.44
2022-09-18T02:02:06.000Z,99.24
2022-09-18T02:03:06.000Z,98.77
2022-09-18T02:04:06.000Z,99.08
2022-09-18T02:05:06.000Z,99.18
2022-09-18T02:06:06.000Z,99.28
2022-09-18T02:07:05.000Z,99.28
2022-09-18T02:08:05.000Z,99.08
2022-09-18T02:09:05.000Z,99.24
2022-09-18T02:10:05.000Z,98.87
2022-09-18T02:11:05.000Z,98.97
2022-09-18T02:12:05.000Z,98.77
2022-09-18T02:13:05.000Z,98.57
2022-09-18T02:14:05.000Z,98.46
2022-09-18T02:15:05.000Z,98.57
2022-09-18T02:16:05.000Z,98.57
2022-09-18T02:17:05.000Z,98.57
2022-09-18T02:18:05.000Z,98.57
2022-09-18T02:19:05.000Z,98.67
2022-09-18T02:20:05.000Z,98.67
2022-09-18T02:21:05.000Z,98.57
2022-09-18T02:22:05.000Z,98.36
2022-09-18T02:23:05.000Z,98.36
2022-09-18T02:24:05.000Z,98.25
2022-09-18T02:25:05.000Z,98.05
2022-09-18T02:26:05.000Z,98.25
2022-09-18T02:27:05.000Z,98.36
2022-09-18T02:28:05.000Z,98.57
2022-09-18T02:29:05.000Z,98.46
2022-09-18T02:30:05.000Z,97.74
2022-09-18T02:31:05.000Z,97.85
2022-09-18T02:32:05.000Z,98.05
2022-09-18T02:33:05.000Z,97.85
2022-09-18T02:34:05.000Z,97.85
2022-09-18T02:35:05.000Z,97.74
2022-09-18T02:36:05.000Z,97.64
2022-09-18T02:37:05.000Z,97.54
2022-09-18T02:38:05.000Z,97.64
2022-09-18T02:39:05.000Z,97.64
2022-09-18T02:40:05.000Z,97.64
2022-09-18T02:41:05.000Z,97.23
2022-09-18T02:42:05.000Z,97.23
2022-09-18T02:43:05.000Z,97.03
2022-09-18T02:44:05.000Z,96.82
2022-09-18T02:45:05.000Z,96.72
2022-09-18T02:46:05.000Z,96.92
2022-09-18T02:47:05.000Z,96.92
2022-09-18T02:48:05.000Z,96.51
2022-09-18T02:49:05.000Z,96.82
2022-09-18T02:50:05.000Z,96.82
2022-09-18T02:51:05.000Z,97.13
2022-09-18T02:52:05.000Z,97.03
2022-09-18T02:53:05.000Z,96.51
2022-09-18T02:54:05.000Z,96.51
2022-09-18T02:55:05.000Z,96.82
2022-09-18T02:56:05.000Z,96.82
2022-09-18T02:57:05.000Z,96.62
2022-09-18T02:58:05.000Z,96.20
2022-09-18T02:59:05.000Z,96.41
2022-09-18T03:00:05.000Z,96.51
2022-09-18T03:01:05.000Z,96.10
2022-09-18T03:02:05.000Z,96.00
2022-09-18T03:03:05.000Z,95.90
2022-09-18T03:04:05.000Z,95.90
2022-09-18T03:05:05.000Z,96.00
2022-09-18T03:06:05.000Z,95.79
2022-09-18T03:07:05.000Z,95.90
2022-09-18T03:08:05.000Z,95.90
2022-09-18T03:09:05.000Z,95.69
2022-09-18T03:10:05.000Z,95.18
2022-09-18T03:11:05.000Z,95.03
2022-09-18T03:12:05.000Z,95.07
2022-09-18T03:13:05.000Z,95.07
2022-09-18T03:14:05.000Z,95.14
2022-09-18T03:15:05.000Z,95.44
2022-09-18T03:16:05.000Z,95.07
2022-09-18T03:17:05.000Z,95.07
2022-09-18T03:18:05.000Z,94.87
2022-09-18T03:19:05.000Z,94.67
2022-09-18T03:20:04.000Z,94.87
2022-09-18T03:21:04.000Z,94.83
2022-09-18T03:22:04.000Z,94.93
2022-09-18T03:23:04.000Z,94.77
2022-09-18T03:24:04.000Z,94.56
2022-09-18T03:25:04.000Z,94.52
2022-09-18T03:26:04.000Z,94.46
2022-09-18T03:27:04.000Z,94.46
2022-09-18T03:28:04.000Z,94.36
2022-09-18T03:29:04.000Z,94.46
2022-09-18T03:30:04.000Z,94.56
2022-09-18T03:31:04.000Z,94.36
2022-09-18T03:32:04.000Z,94.26
2022-09-18T03:33:04.000Z,94.15
2022-09-18T03:34:04.000Z,94.36
2022-09-18T03:35:04.000Z,94.46
2022-09-18T03:36:04.000Z,94.15
2022-09-18T03:37:04.000Z,94.56
2022-09-18T03:38:04.000Z,94.56
2022-09-18T03:39:04.000Z,94.56
2022-09-18T03:40:04.000Z,94.56
2022-09-18T03:41:04.000Z,94.67
2022-09-18T03:42:04.000Z,94.98
2022-09-18T03:43:04.000Z,95.28
2022-09-18T03:44:04.000Z,94.98
2022-09-18T03:45:04.000Z,95.07
2022-09-18T03:46:04.000Z,94.71
2022-09-18T03:47:04.000Z,95.02
2022-09-18T03:48:04.000Z,95.32
2022-09-18T03:49:04.000Z,95.12
2022-09-18T03:50:04.000Z,94.81
2022-09-18T03:51:04.000Z,94.61
2022-09-18T03:52:04.000Z,95.02
2022-09-18T03:53:04.000Z,95.23
2022-09-18T03:54:04.000Z,94.92
2022-09-18T03:55:04.000Z,95.23
2022-09-18T03:56:04.000Z,95.12
2022-09-18T03:57:04.000Z,95.23
2022-09-18T03:58:04.000Z,95.23
2022-09-18T03:59:04.000Z,95.02
2022-09-18T04:00:04.000Z,95.02
2022-09-18T04:01:04.000Z,95.12
2022-09-18T04:02:04.000Z,95.12
2022-09-18T04:03:04.000Z,95.23
2022-09-18T04:04:04.000Z,95.23
2022-09-18T04:05:04.000Z,94.81
2022-09-18T04:06:04.000Z,95.12
2022-09-18T04:07:04.000Z,94.92
2022-09-18T04:08:04.000Z,94.51
2022-09-18T04:09:04.000Z,94.92
2022-09-18T04:10:04.000Z,94.81
2022-09-18T04:11:04.000Z,94.81
2022-09-18T04:12:04.000Z,94.81
2022-09-18T04:13:04.000Z,94.71
2022-09-18T04:14:04.000Z,95.02
2022-09-18T04:15:04.000Z,95.12
2022-09-18T04:16:04.000Z,95.12
2022-09-18T04:17:04.000Z,95.12
2022-09-18T04:18:04.000Z,95.32
2022-09-18T04:19:04.000Z,95.32
2022-09-18T04:20:04.000Z,94.96
2022-09-18T04:21:04.000Z,95.43
2022-09-18T04:22:04.000Z,95.02
2022-09-18T04:23:04.000Z,95.47
2022-09-18T04:24:04.000Z,95.74
2022-09-18T04:25:04.000Z,95.89
2022-09-18T04:26:04.000Z,95.84
2022-09-18T04:27:04.000Z,95.78
2022-09-18T04:28:04.000Z,95.68
2022-09-18T04:29:04.000Z,95.68
2022-09-18T04:30:04.000Z,95.89
2022-09-18T04:31:04.000Z,96.09
2022-09-18T04:32:04.000Z,96.09
2022-09-18T04:33:03.000Z,95.84
2022-09-18T04:34:03.000Z,95.68
2022-09-18T04:35:03.000Z,95.47
2022-09-18T04:36:03.000Z,95.68
2022-09-18T04:37:03.000Z,95.68
2022-09-18T04:38:03.000Z,95.68
2022-09-18T04:39:03.000Z,95.57
2022-09-18T04:40:03.000Z,95.78
2022-09-18T04:41:03.000Z,95.89
2022-09-18T04:42:03.000Z,95.89
2022-09-18T04:43:03.000Z,95.89
2022-09-18T04:44:03.000Z,95.98
2022-09-18T04:45:03.000Z,95.78
2022-09-18T04:46:03.000Z,95.89
2022-09-18T04:47:03.000Z,95.68
2022-09-18T04:48:03.000Z,95.78
2022-09-18T04:49:03.000Z,95.78
2022-09-18T04:50:03.000Z,95.68
2022-09-18T04:51:03.000Z,95.78
2022-09-18T04:52:03.000Z,95.89
2022-09-18T04:53:03.000Z,95.98
2022-09-18T04:54:03.000Z,96.09
2022-09-18T04:55:03.000Z,95.98
2022-09-18T04:56:03.000Z,96.30
2022-09-18T04:57:03.000Z,96.50
2022-09-18T04:58:03.000Z,96.40
2022-09-18T04:59:03.000Z,96.30
2022-09-18T05:00:03.000Z,96.45
2022-09-18T05:01:03.000Z,96.35
2022-09-18T05:02:03.000Z,96.25
2022-09-18T05:03:03.000Z,96.25
2022-09-18T05:04:03.000Z,96.45
2022-09-18T05:05:03.000Z,96.35
2022-09-18T05:06:03.000Z,96.04
2022-09-18T05:07:03.000Z,96.04
2022-09-18T05:08:03.000Z,95.74
2022-09-18T05:09:03.000Z,95.74
2022-09-18T05:10:03.000Z,95.53
2022-09-18T05:11:03.000Z,95.43
2022-09-18T05:12:03.000Z,95.53
2022-09-18T05:13:03.000Z,95.02
2022-09-18T05:14:03.000Z,95.32
2022-09-18T05:15:03.000Z,95.23
2022-09-18T05:16:03.000Z,95.53
2022-09-18T05:17:03.000Z,95.43
2022-09-18T05:18:03.000Z,95.23
2022-09-18T05:19:03.000Z,95.23
2022-09-18T05:20:03.000Z,95.23
2022-09-18T05:21:03.000Z,95.18
2022-09-18T05:22:03.000Z,95.49
2022-09-18T05:23:03.000Z,95.18
2022-09-18T05:24:03.000Z,95.23
2022-09-18T05:25:03.000Z,95.18
2022-09-18T05:26:03.000Z,95.07
2022-09-18T05:27:03.000Z,95.39
2022-09-18T05:28:03.000Z,95.69
2022-09-18T05:29:03.000Z,95.59
2022-09-18T05:30:03.000Z,95.49
2022-09-18T05:31:03.000Z,95.28
2022-09-18T05:32:03.000Z,95.18
2022-09-18T05:33:03.000Z,94.98
2022-09-18T05:34:03.000Z,95.28
2022-09-18T05:35:03.000Z,95.07
2022-09-18T05:36:03.000Z,94.77
2022-09-18T05:37:03.000Z,94.87
2022-09-18T05:38:03.000Z,94.77
2022-09-18T05:39:03.000Z,94.62
2022-09-18T05:40:03.000Z,94.77
2022-09-18T05:41:03.000Z,94.93
2022-09-18T05:42:03.000Z,94.83
2022-09-18T05:43:03.000Z,95.03
2022-09-18T05:44:03.000Z,95.34
2022-09-18T05:45:02.000Z,94.73
2022-09-18T05:46:02.000Z,94.52
2022-09-18T05:47:02.000Z,94.32
2022-09-18T05:48:02.000Z,94.52
2022-09-18T05:49:02.000Z,94.62
2022-09-18T05:50:02.000Z,94.73
2022-09-18T05:51:02.000Z,95.03
2022-09-18T05:52:02.000Z,94.73
2022-09-18T05:53:02.000Z,94.52
2022-09-18T05:54:02.000Z,94.07
2022-09-18T05:55:02.000Z,94.21
2022-09-18T05:56:02.000Z,93.86
2022-09-18T05:57:02.000Z,93.76
2022-09-18T05:58:02.000Z,93.86
2022-09-18T05:59:02.000Z,93.86
2022-09-18T06:00:02.000Z,93.76
2022-09-18T06:01:02.000Z,93.96
2022-09-18T06:02:02.000Z,93.96
2022-09-18T06:03:02.000Z,94.17
2022-09-18T06:04:02.000Z,93.86
2022-09-18T06:05:02.000Z,93.66
2022-09-18T06:06:02.000Z,93.66
2022-09-18T06:07:02.000Z,93.45
2022-09-18T06:08:02.000Z,93.15
2022-09-18T06:09:02.000Z,93.25
2022-09-18T06:10:02.000Z,93.35
2022-09-18T06:11:02.000Z,92.94
2022-09-18T06:12:02.000Z,92.83
2022-09-18T06:13:02.000Z,92.74
2022-09-18T06:14:02.000Z,92.53
2022-09-18T06:15:02.000Z,92.32
2022-09-18T06:16:02.000Z,92.12
2022-09-18T06:17:02.000Z,92.02
2022-09-18T06:18:02.000Z,92.22
2022-09-18T06:19:02.000Z,92.43
2022-09-18T06:20:02.000Z,91.82
2022-09-18T06:21:02.000Z,90.99
2022-09-18T06:22:02.000Z,91.36
2022-09-18T06:23:02.000Z,91.56
2022-09-18T06:24:02.000Z,91.56
2022-09-18T06:25:02.000Z,91.46
2022-09-18T06:26:02.000Z,91.46
2022-09-18T06:27:02.000Z,91.67
2022-09-18T06:28:02.000Z,91.16
2022-09-18T06:29:02.000Z,91.05
2022-09-18T06:30:02.000Z,91.16
2022-09-18T06:31:02.000Z,90.75
2022-09-18T06:32:02.000Z,90.81
2022-09-18T06:33:02.000Z,90.60
2022-09-18T06:34:02.000Z,90.09
2022-09-18T06:35:02.000Z,89.89
2022-09-18T06:36:02.000Z,89.37
2022-09-18T06:37:02.000Z,89.58
2022-09-18T06:38:02.000Z,89.68
2022-09-18T06:39:02.000Z,89.58
2022-09-18T06:40:02.000Z,89.17
2022-09-18T06:41:02.000Z,89.27
2022-09-18T06:42:02.000Z,89.68
2022-09-18T06:43:02.000Z,89.78
2022-09-18T06:44:02.000Z,89.78
2022-09-18T06:45:02.000Z,89.78
2022-09-18T06:46:02.000Z,89.47
2022-09-18T06:47:02.000Z,89.27
2022-09-18T06:48:02.000Z,89.27
2022-09-18T06:49:02.000Z,89.23
2022-09-18T06:50:02.000Z,89.12
2022-09-18T06:51:02.000Z,89.03
2022-09-18T06:52:02.000Z,89.03
2022-09-18T06:53:02.000Z,89.03
2022-09-18T06:54:02.000Z,88.92
2022-09-18T06:55:02.000Z,89.33
2022-09-18T06:56:02.000Z,88.41
2022-09-18T06:57:02.000Z,88.00
2022-09-18T06:58:01.000Z,88.10
2022-09-18T06:59:01.000Z,88.20
2022-09-18T07:00:01.000Z,87.85
2022-09-18T07:01:01.000Z,87.45
2022-09-18T07:02:01.000Z,87.45
2022-09-18T07:03:01.000Z,86.83
2022-09-18T07:04:01.000Z,87.14
2022-09-18T07:05:01.000Z,87.45
2022-09-18T07:06:01.000Z,87.65
2022-09-18T07:07:01.000Z,87.96
2022-09-18T07:08:01.000Z,87.85
2022-09-18T07:09:01.000Z,86.94
2022-09-18T07:10:01.000Z,86.73
2022-09-18T07:11:01.000Z,87.35
2022-09-18T07:12:01.000Z,87.35
2022-09-18T07:13:01.000Z,86.79
2022-09-18T07:14:01.000Z,87.51
2022-09-18T07:15:01.000Z,86.90
2022-09-18T07:16:01.000Z,87.10
2022-09-18T07:17:01.000Z,87.00
2022-09-18T07:18:01.000Z,87.20
2022-09-18T07:19:01.000Z,87.10
2022-09-18T07:20:01.000Z,86.76
2022-09-18T07:21:01.000Z,87.26
2022-09-18T07:22:01.000Z,87.16
2022-09-18T07:23:01.000Z,86.44
2022-09-18T07:24:01.000Z,86.76
2022-09-18T07:25:01.000Z,87.12
2022-09-18T07:26:01.000Z,87.32
2022-09-18T07:27:01.000Z,87.84
2022-09-18T07:28:01.000Z,85.49
2022-09-18T07:29:01.000Z,84.67
2022-09-18T07:30:01.000Z,84.36
2022-09-18T07:31:01.000Z,84.47
2022-09-18T07:32:01.000Z,85.24
2022-09-18T07:33:01.000Z,84.74
2022-09-18T07:34:01.000Z,84.94
2022-09-18T07:35:01.000Z,84.83
2022-09-18T07:36:01.000Z,83.40
2022-09-18T07:37:01.000Z,83.16
2022-09-18T07:38:01.000Z,83.37
2022-09-18T07:39:01.000Z,83.26
2022-09-18T07:40:01.000Z,81.94
2022-09-18T07:41:01.000Z,81.32
2022-09-18T07:42:01.000Z,82.31
2022-09-18T07:43:01.000Z,82.21
2022-09-18T07:44:01.000Z,81.59
2022-09-18T07:45:01.000Z,80.98
2022-09-18T07:46:01.000Z,81.29
2022-09-18T07:47:01.000Z,81.80
2022-09-18T07:48:01.000Z,82.55
2022-09-18T07:49:01.000Z,81.43
2022-09-18T07:50:01.000Z,81.63
2022-09-18T07:51:01.000Z,80.71
2022-09-18T07:52:01.000Z,81.59
2022-09-18T07:53:01.000Z,82.71
2022-09-18T07:54:01.000Z,82.82
2022-09-18T07:55:01.000Z,82.71
2022-09-18T07:56:01.000Z,81.59
2022-09-18T07:57:01.000Z,80.37
2022-09-18T07:58:01.000Z,79.86
2022-09-18T07:59:01.000Z,80.74
2022-09-18T08:00:01.000Z,80.84
2022-09-18T08:01:01.000Z,80.54
2022-09-18T08:02:01.000Z,80.94
2022-09-18T08:03:01.000Z,81.35
2022-09-18T08:04:01.000Z,80.13
2022-09-18T08:05:01.000Z,80.43
2022-09-18T08:06:01.000Z,80.02
2022-09-18T08:07:01.000Z,80.33
2022-09-18T08:08:01.000Z,79.17
2022-09-18T08:09:01.000Z,79.58
2022-09-18T08:10:01.000Z,79.48
2022-09-18T08:11:00.000Z,78.97
2022-09-18T08:12:00.000Z,79.14
2022-09-18T08:13:00.000Z,78.73
2022-09-18T08:14:00.000Z,78.53
2022-09-18T08:15:00.000Z,78.72
2022-09-18T08:16:00.000Z,76.38
2022-09-18T08:17:00.000Z,74.07
2022-09-18T08:18:00.000Z,71.33
2022-09-18T08:19:00.000Z,69.54
2022-09-18T08:20:00.000Z,69.98
2022-09-18T08:21:00.000Z,68.60
2022-09-18T08:22:00.000Z,66.03
2022-09-18T08:23:00.000Z,66.06
2022-09-18T08:24:00.000Z,66.13
2022-09-18T08:25:00.000Z,66.77
2022-09-18T08:26:00.000Z,68.32
2022-09-18T08:27:00.000Z,69.98
2022-09-18T08:28:00.000Z,70.52
2022-09-18T08:29:00.000Z,71.57
2022-09-18T08:30:00.000Z,72.99
2022-09-18T08:31:00.000Z,73.57
2022-09-18T08:32:00.000Z,72.14
2022-09-18T08:33:00.000Z,72.75
2022-09-18T08:34:00.000Z,71.97
2022-09-18T08:35:00.000Z,72.72
2022-09-18T08:36:00.000Z,72.08
2022-09-18T08:37:00.000Z,72.31
2022-09-18T08:38:00.000Z,73.16
2022-09-18T08:39:00.000Z,74.68
2022-09-18T08:40:00.000Z,74.68
2022-09-18T08:41:00.000Z,75.40
2022-09-18T08:42:00.000Z,74.99
2022-09-18T08:43:00.000Z,73.80
2022-09-18T08:44:00.000Z,72.69
2022-09-18T08:45:00.000Z,71.50
2022-09-18T08:46:00.000Z,72.52
2022-09-18T08:47:00.000Z,72.72
2022-09-18T08:48:00.000Z,72.82
2022-09-18T08:49:00.000Z,73.74
2022-09-18T08:50:00.000Z,73.43
2022-09-18T08:51:00.000Z,73.57
2022-09-18T08:52:00.000Z,72.34
2022-09-18T08:53:00.000Z,72.55
2022-09-18T08:54:00.000Z,73.67
2022-09-18T08:55:00.000Z,72.96
2022-09-18T08:56:00.000Z,72.82
2022-09-18T08:57:00.000Z,72.58
2022-09-18T08:58:00.000Z,71.57
2022-09-18T08:59:00.000Z,70.96
2022-09-18T09:00:00.000Z,72.08
2022-09-18T09:01:00.000Z,72.08
2022-09-18T09:02:00.000Z,71.67
2022-09-18T09:03:00.000Z,71.57
2022-09-18T09:04:00.000Z,71.47
2022-09-18T09:05:00.000Z,72.01
2022-09-18T09:06:00.000Z,72.41
2022-09-18T09:07:00.000Z,73.02
2022-09-18T09:08:00.000Z,74.11
2022-09-18T09:09:00.000Z,73.30
2022-09-18T09:10:00.000Z,73.70
2022-09-18T09:11:00.000Z,72.89
2022-09-18T09:12:00.000Z,72.28
2022-09-18T09:13:00.000Z,72.89
2022-09-18T09:14:00.000Z,72.69
2022-09-18T09:15:00.000Z,72.48
2022-09-18T09:16:00.000Z,73.09
2022-09-18T09:17:00.000Z,73.02
2022-09-18T09:18:00.000Z,70.76
2022-09-18T09:19:00.000Z,68.59
2022-09-18T09:20:00.000Z,67.44
2022-09-18T09:21:00.000Z,66.16
2022-09-18T09:22:00.000Z,66.00
2022-09-18T09:23:00.000Z,64.96
2022-09-18T09:23:59.000Z,64.29
2022-09-18T09:24:59.000Z,63.65
2022-09-18T09:25:59.000Z,61.51
2022-09-18T09:26:59.000Z,62.11
2022-09-18T09:27:59.000Z,61.37
2022-09-18T09:28:59.000Z,60.94
2022-09-18T09:29:59.000Z,61.35
2022-09-18T09:30:59.000Z,60.84
2022-09-18T09:31:59.000Z,60.91
2022-09-18T09:32:59.000Z,60.08
2022-09-18T09:33:59.000Z,58.97
2022-09-18T09:34:59.000Z,58.06
2022-09-18T09:35:59.000Z,58.56
2022-09-18T09:36:59.000Z,58.42
2022-09-18T09:37:59.000Z,59.35
2022-09-18T09:38:59.000Z,60.26
2022-09-18T09:39:59.000Z,59.63
2022-09-18T09:40:59.000Z,58.92
2022-09-18T09:41:59.000Z,59.33
2022-09-18T09:42:59.000Z,58.39
2022-09-18T09:43:59.000Z,58.69
2022-09-18T09:44:59.000Z,57.96
2022-09-18T09:45:59.000Z,57.56
2022-09-18T09:46:59.000Z,58.04
2022-09-18T09:47:59.000Z,60.29
2022-09-18T09:48:59.000Z,60.69
2022-09-18T09:49:59.000Z,60.29
2022-09-18T09:50:59.000Z,59.38
2022-09-18T09:51:59.000Z,58.98
2022-09-18T09:52:59.000Z,60.03
2022-09-18T09:53:59.000Z,59.09
2022-09-18T09:54:59.000Z,58.67
2022-09-18T09:55:59.000Z,57.56
2022-09-18T09:56:59.000Z,57.93
2022-09-18T09:57:59.000Z,57.78
2022-09-18T09:58:59.000Z,56.68
2022-09-18T09:59:59.000Z,59.09
2022-09-18T10:00:59.000Z,57.96
2022-09-18T10:01:59.000Z,58.03
2022-09-18T10:02:59.000Z,56.85
2022-09-18T10:03:59.000Z,56.45
2022-09-18T10:04:59.000Z,57.98
2022-09-18T10:05:59.000Z,59.35
2022-09-18T10:06:59.000Z,59.99
2022-09-18T10:07:59.000Z,60.62
2022-09-18T10:08:59.000Z,61.33
2022-09-18T10:09:59.000Z,61.43
2022-09-18T10:10:59.000Z,61.51
2022-09-18T10:11:59.000Z,61.03
2022-09-18T10:12:59.000Z,60.48
2022-09-18T10:13:59.000Z,62.18
2022-09-18T10:14:59.000Z,63.70
2022-09-18T10:15:59.000Z,64.04
2022-09-18T10:16:59.000Z,65.18
2022-09-18T10:17:59.000Z,65.62
2022-09-18T10:18:59.000Z,65.52
2022-09-18T10:19:59.000Z,66.74
2022-09-18T10:20:59.000Z,66.43
2022-09-18T10:21:59.000Z,65.92
2022-09-18T10:22:59.000Z,65.45
2022-09-18T10:23:59.000Z,65.75
2022-09-18T10:24:59.000Z,66.08
2022-09-18T10:25:59.000Z,66.39
2022-09-18T10:26:59.000Z,67.50
2022-09-18T10:27:59.000Z,68.08
2022-09-18T10:28:59.000Z,67.85
2022-09-18T10:29:59.000Z,66.37
2022-09-18T10:30:59.000Z,66.33
2022-09-18T10:31:59.000Z,67.11
2022-09-18T10:32:59.000Z,64.07
2022-09-18T10:33:59.000Z,64.04
2022-09-18T10:34:59.000Z,63.89
2022-09-18T10:35:58.000Z,62.85
2022-09-18T10:36:58.000Z,61.91
2022-09-18T10:37:58.000Z,62.48
2022-09-18T10:38:58.000Z,63.16
2022-09-18T10:39:58.000Z,61.52
2022-09-18T10:40:58.000Z,61.89
2022-09-18T10:41:58.000Z,59.67
2022-09-18T10:42:58.000Z,60.48
2022-09-18T10:43:58.000Z,60.88
2022-09-18T10:44:58.000Z,58.29
2022-09-18T10:45:58.000Z,60.41
2022-09-18T10:46:58.000Z,61.96
2022-09-18T10:47:58.000Z,56.80
2022-09-18T10:48:58.000Z,56.42
2022-09-18T10:49:58.000Z,57.25
2022-09-18T10:50:58.000Z,57.96
2022-09-18T10:51:58.000Z,58.59
2022-09-18T10:52:58.000Z,58.29
2022-09-18T10:53:58.000Z,59.12
2022-09-18T10:54:58.000Z,58.82
2022-09-18T10:55:58.000Z,59.12
2022-09-18T10:56:58.000Z,58.69
2022-09-18T10:57:58.000Z,58.29
2022-09-18T10:58:58.000Z,58.59
2022-09-18T10:59:58.000Z,58.59
2022-09-18T11:00:58.000Z,59.57
2022-09-18T11:01:58.000Z,58.26
2022-09-18T11:02:58.000Z,59.34
2022-09-18T11:03:58.000Z,59.37
2022-09-18T11:04:58.000Z,60.21
2022-09-18T11:05:58.000Z,60.94
2022-09-18T11:06:58.000Z,62.35
2022-09-18T11:07:58.000Z,62.99
2022-09-18T11:08:58.000Z,63.09
2022-09-18T11:09:58.000Z,63.32
2022-09-18T11:10:58.000Z,65.47
2022-09-18T11:11:58.000Z,64.29
2022-09-18T11:12:58.000Z,65.50
2022-09-18T11:13:58.000Z,66.11
2022-09-18T11:14:58.000Z,65.20
2022-09-18T11:15:58.000Z,64.32
2022-09-18T11:16:58.000Z,65.67
2022-09-18T11:17:58.000Z,67.49
2022-09-18T11:18:58.000Z,67.01
2022-09-18T11:19:58.000Z,66.94
2022-09-18T11:20:58.000Z,68.19
2022-09-18T11:21:58.000Z,69.00
2022-09-18T11:22:58.000Z,69.92
2022-09-18T11:23:58.000Z,71.03
2022-09-18T11:24:58.000Z,71.23
2022-09-18T11:25:58.000Z,72.11
2022-09-18T11:26:58.000Z,70.49
2022-09-18T11:27:58.000Z,70.59
2022-09-18T11:28:58.000Z,70.39
2022-09-18T11:29:58.000Z,71.00
2022-09-18T11:30:58.000Z,70.42
2022-09-18T11:31:58.000Z,71.73
2022-09-18T11:32:58.000Z,72.21
2022-09-18T11:33:58.000Z,70.89
2022-09-18T11:34:58.000Z,70.79
2022-09-18T11:35:58.000Z,69.98
2022-09-18T11:36:58.000Z,70.49
2022-09-18T11:37:58.000Z,70.08
2022-09-18T11:38:58.000Z,70.79
2022-09-18T11:39:58.000Z,69.98
2022-09-18T11:40:58.000Z,69.34
2022-09-18T11:41:58.000Z,68.97
2022-09-18T11:42:58.000Z,69.68
2022-09-18T11:43:58.000Z,70.01
2022-09-18T11:44:58.000Z,69.64
2022-09-18T11:45:58.000Z,70.96
2022-09-18T11:46:58.000Z,70.56
2022-09-18T11:47:57.000Z,70.86
2022-09-18T11:48:57.000Z,71.03
2022-09-18T11:49:57.000Z,71.03
2022-09-18T11:50:57.000Z,70.52
2022-09-18T11:51:57.000Z,71.00
2022-09-18T11:52:57.000Z,70.59
2022-09-18T11:53:57.000Z,70.05
2022-09-18T11:54:57.000Z,69.95
2022-09-18T11:55:57.000Z,69.54
2022-09-18T11:56:57.000Z,69.24
2022-09-18T11:57:57.000Z,67.89
2022-09-18T11:58:57.000Z,67.96
2022-09-18T11:59:57.000Z,66.92
2022-09-18T12:00:57.000Z,65.61
2022-09-18T12:01:57.000Z,65.30
2022-09-18T12:02:57.000Z,65.70
2022-09-18T12:03:57.000Z,65.40
2022-09-18T12:04:57.000Z,64.90
2022-09-18T12:05:57.000Z,65.50
2022-09-18T12:06:57.000Z,66.35
2022-09-18T12:07:57.000Z,66.75
2022-09-18T12:08:57.000Z,66.47
2022-09-18T12:09:57.000Z,67.72
2022-09-18T12:10:57.000Z,68.77
2022-09-18T12:11:57.000Z,69.31
2022-09-18T12:12:57.000Z,70.21
2022-09-18T12:13:57.000Z,69.74
2022-09-18T12:14:57.000Z,70.69
2022-09-18T12:15:57.000Z,70.69
2022-09-18T12:16:57.000Z,71.64
2022-09-18T12:17:57.000Z,71.73
2022-09-18T12:18:57.000Z,71.94
2022-09-18T12:19:57.000Z,71.97
2022-09-18T12:20:57.000Z,72.28
2022-09-18T12:21:57.000Z,72.01
2022-09-18T12:22:57.000Z,73.22
2022-09-18T12:23:57.000Z,73.94
2022-09-18T12:24:57.000Z,74.24
2022-09-18T12:25:57.000Z,74.38
2022-09-18T12:26:57.000Z,74.38
2022-09-18T12:27:57.000Z,75.40
2022-09-18T12:28:57.000Z,74.38
2022-09-18T12:29:57.000Z,75.80
2022-09-18T12:30:57.000Z,74.82
2022-09-18T12:31:57.000Z,74.82
2022-09-18T12:32:57.000Z,75.57
2022-09-18T12:33:57.000Z,76.18
2022-09-18T12:34:57.000Z,76.72
2022-09-18T12:35:57.000Z,77.53
2022-09-18T12:36:57.000Z,76.42
2022-09-18T12:37:57.000Z,76.21
2022-09-18T12:38:57.000Z,76.11
2022-09-18T12:39:57.000Z,76.21
2022-09-18T12:40:57.000Z,76.01
2022-09-18T12:41:57.000Z,75.95
2022-09-18T12:42:57.000Z,76.86
2022-09-18T12:43:57.000Z,77.37
2022-09-18T12:44:57.000Z,78.19
2022-09-18T12:45:57.000Z,79.03
2022-09-18T12:46:57.000Z,79.85
2022-09-18T12:47:57.000Z,80.87
2022-09-18T12:47:57.000Z,80.87
2022-09-18T12:48:57.000Z,82.33
2022-09-18T12:48:57.000Z,82.33
2022-09-18T12:49:57.000Z,84.17